createdAt,value
2018-06-19T00:02:17.862Z,2.27
2018-06-19T00:04:45.100Z,1.43
2018-06-19T00:07:12.350Z,2.13
2018-06-19T00:09:41.103Z,1.90
2018-06-19T00:12:08.331Z,1.63
2018-06-19T00:14:35.553Z,1.63
2018-06-19T00:17:03.151Z,2.00
2018-06-19T00:19:30.962Z,1.93
2018-06-19T00:22:00.151Z,2.00
2018-06-19T00:24:27.365Z,2.40
2018-06-19T00:26:58.631Z,1.60
2018-06-19T00:29:25.849Z,2.23
2018-06-19T00:31:53.081Z,1.60
2018-06-19T00:34:20.323Z,2.30
2018-06-19T00:36:47.553Z,2.63
2018-06-19T00:39:14.774Z,1.80
2018-06-19T00:41:41.973Z,2.73
2018-06-19T00:44:10.015Z,2.47
2018-06-19T00:46:39.791Z,2.17
2018-06-19T00:49:07.026Z,2.27
2018-06-19T00:51:34.217Z,1.67
2018-06-19T00:54:01.429Z,2.33
2018-06-19T00:56:40.307Z,2.23
2018-06-19T00:59:07.832Z,2.10
2018-06-19T01:01:35.068Z,2.20
2018-06-19T01:04:02.278Z,1.50
2018-06-19T01:06:29.914Z,2.70
2018-06-19T01:08:57.166Z,2.63
2018-06-19T01:11:24.366Z,2.47
2018-06-19T01:13:51.598Z,2.40
2018-06-19T01:16:18.805Z,3.23
2018-06-19T01:18:46.059Z,2.73
2018-06-19T01:21:13.287Z,2.80
2018-06-19T01:23:40.486Z,2.70
2018-06-19T01:26:07.736Z,2.43
2018-06-19T01:28:35.383Z,2.93
2018-06-19T01:31:02.555Z,3.23
2018-06-19T01:33:29.745Z,3.50
2018-06-19T01:35:57.294Z,3.77
2018-06-19T01:38:24.485Z,2.73
2018-06-19T01:40:51.741Z,3.00
2018-06-19T01:43:19.274Z,2.60
2018-06-19T01:45:46.469Z,2.87
2018-06-19T01:48:13.666Z,2.90
2018-06-19T01:50:40.877Z,3.50
2018-06-19T01:53:08.081Z,3.17
2018-06-19T01:55:35.277Z,2.50
2018-06-19T01:58:02.835Z,2.47
2018-06-19T02:00:30.043Z,2.50
2018-06-19T02:02:57.266Z,3.27
2018-06-19T02:05:24.489Z,3.47
2018-06-19T02:07:51.715Z,3.10
2018-06-19T02:10:19.328Z,3.07
2018-06-19T02:12:46.569Z,3.40
2018-06-19T02:15:13.905Z,2.87
2018-06-19T02:17:41.126Z,2.90
2018-06-19T02:20:08.575Z,3.33
2018-06-19T02:22:36.134Z,3.53
2018-06-19T02:25:03.629Z,3.10
2018-06-19T02:27:31.013Z,3.23
2018-06-19T02:29:58.254Z,4.03
2018-06-19T02:32:25.486Z,2.83
2018-06-19T02:34:52.733Z,3.90
2018-06-19T02:37:19.938Z,3.20
2018-06-19T02:39:47.127Z,3.37
2018-06-19T02:42:14.618Z,3.57
2018-06-19T02:44:41.874Z,4.83
2018-06-19T02:47:09.098Z,4.20
2018-06-19T02:49:40.368Z,5.17
2018-06-19T02:52:07.614Z,4.03
2018-06-19T02:54:34.845Z,3.73
2018-06-19T02:57:02.335Z,5.13
2018-06-19T02:59:29.781Z,4.60
2018-06-19T03:01:56.983Z,5.03
2018-06-19T03:04:24.518Z,6.20
2018-06-19T03:06:51.773Z,5.17
2018-06-19T03:09:18.971Z,5.10
2018-06-19T03:11:46.599Z,5.70
2018-06-19T03:14:13.861Z,5.03
2018-06-19T03:16:41.053Z,4.57
2018-06-19T03:19:10.562Z,4.53
2018-06-19T03:21:37.772Z,4.33
2018-06-19T03:24:04.991Z,5.13
2018-06-19T03:26:32.505Z,4.50
2018-06-19T03:28:59.722Z,5.17
2018-06-19T03:31:26.940Z,4.87
2018-06-19T03:33:54.691Z,4.83
2018-06-19T03:36:21.884Z,4.53
2018-06-19T03:38:49.100Z,5.23
2018-06-19T03:41:16.653Z,5.07
2018-06-19T03:43:43.918Z,4.63
2018-06-19T03:46:11.143Z,5.67
2018-06-19T03:48:38.651Z,6.70
2018-06-19T03:51:05.875Z,5.50
2018-06-19T03:53:33.122Z,4.33
2018-06-19T03:56:00.353Z,5.77
2018-06-19T03:58:27.567Z,5.70
2018-06-19T04:00:54.847Z,5.13
2018-06-19T04:03:22.406Z,4.67
2018-06-19T04:05:49.614Z,5.47
2018-06-19T04:08:16.825Z,5.30
2018-06-19T04:10:44.574Z,8.10
2018-06-19T04:13:11.774Z,7.53
2018-06-19T04:15:38.970Z,10.07
2018-06-19T04:18:10.228Z,7.83
2018-06-19T04:20:37.440Z,6.60
2018-06-19T04:23:04.632Z,8.10
2018-06-19T04:25:32.110Z,8.27
2018-06-19T04:27:59.299Z,7.43
2018-06-19T04:30:26.469Z,6.03
2018-06-19T04:32:53.678Z,5.77
2018-06-19T04:35:20.842Z,6.87
2018-06-19T04:37:48.318Z,7.07
2018-06-19T04:40:15.499Z,6.17
2018-06-19T04:42:42.670Z,5.73
2018-06-19T04:45:10.269Z,6.37
2018-06-19T04:47:37.477Z,5.30
2018-06-19T04:50:04.685Z,5.50
2018-06-19T04:52:32.360Z,6.00
2018-06-19T04:54:59.552Z,6.70
2018-06-19T04:57:26.734Z,4.63
2018-06-19T04:59:53.934Z,5.57
2018-06-19T05:02:21.120Z,4.90
2018-06-19T05:04:48.315Z,6.40
2018-06-19T05:07:15.806Z,5.73
2018-06-19T05:09:43.229Z,5.63
2018-06-19T05:12:10.401Z,4.77
2018-06-19T05:14:37.591Z,5.40
2018-06-19T05:17:04.887Z,4.90
2018-06-19T05:19:32.077Z,5.77
2018-06-19T05:21:59.547Z,5.93
2018-06-19T05:24:26.734Z,4.60
2018-06-19T05:26:53.926Z,5.23
2018-06-19T05:29:21.525Z,5.50
2018-06-19T05:31:48.716Z,5.57
2018-06-19T05:34:15.950Z,4.73
2018-06-19T05:36:43.111Z,5.90
2018-06-19T05:39:10.982Z,5.33
2018-06-19T05:41:38.393Z,6.80
2018-06-19T05:44:06.605Z,5.80
2018-06-19T05:46:34.045Z,4.57
2018-06-19T05:49:01.288Z,5.70
2018-06-19T05:51:28.456Z,4.60
2018-06-19T05:53:55.633Z,5.77
2018-06-19T05:56:22.794Z,5.77
2018-06-19T05:58:50.256Z,6.20
2018-06-19T06:01:17.413Z,5.17
2018-06-19T06:03:44.569Z,4.43
2018-06-19T06:06:11.722Z,4.67
2018-06-19T06:08:38.877Z,4.73
2018-06-19T06:11:06.120Z,4.73
2018-06-19T06:13:33.261Z,4.83
2018-06-19T06:16:00.421Z,3.87
2018-06-19T06:18:27.573Z,4.87
2018-06-19T06:20:54.741Z,4.47
2018-06-19T06:23:21.889Z,4.53
2018-06-19T06:25:49.073Z,3.90
2018-06-19T06:28:16.232Z,4.77
2018-06-19T06:30:43.381Z,4.07
2018-06-19T06:33:10.538Z,4.50
2018-06-19T06:35:37.717Z,4.03
2018-06-19T06:38:04.911Z,4.53
2018-06-19T06:40:32.115Z,5.27
2018-06-19T06:42:59.289Z,4.77
2018-06-19T06:45:26.449Z,3.90
2018-06-19T06:47:55.925Z,4.60
2018-06-19T06:50:23.191Z,5.07
2018-06-19T06:52:50.267Z,3.83
2018-06-19T06:55:17.434Z,4.83
2018-06-19T06:57:44.590Z,5.30
2018-06-19T07:00:11.769Z,5.13
2018-06-19T07:02:41.009Z,4.60
2018-06-19T07:05:08.180Z,4.23
2018-06-19T07:07:35.352Z,4.73
2018-06-19T07:10:02.817Z,4.70
2018-06-19T07:12:29.958Z,4.77
2018-06-19T07:14:57.118Z,5.20
2018-06-19T07:17:28.650Z,5.23
2018-06-19T07:19:55.801Z,4.80
2018-06-19T07:22:22.996Z,4.40
2018-06-19T07:24:50.424Z,4.50
2018-06-19T07:27:17.562Z,4.43
2018-06-19T07:29:44.735Z,5.07
2018-06-19T07:32:11.889Z,4.90
2018-06-19T07:34:39.070Z,4.40
2018-06-19T07:37:06.244Z,4.80
2018-06-19T07:39:33.761Z,4.13
2018-06-19T07:42:00.930Z,5.07
2018-06-19T07:44:28.090Z,5.07
2018-06-19T07:46:55.257Z,3.97
2018-06-19T07:49:22.552Z,5.23
2018-06-19T07:51:49.717Z,4.30
2018-06-19T07:54:17.189Z,4.47
2018-06-19T07:56:44.351Z,5.87
2018-06-19T07:59:11.545Z,4.37
2018-06-19T08:01:39.085Z,4.10
2018-06-19T08:04:07.226Z,5.20
2018-06-19T08:06:34.593Z,5.80
2018-06-19T08:09:01.766Z,4.23
2018-06-19T08:11:28.917Z,3.90
2018-06-19T08:13:56.093Z,3.83
2018-06-19T08:16:23.245Z,4.67
2018-06-19T08:18:50.408Z,3.90
2018-06-19T08:21:17.581Z,4.47
2018-06-19T08:23:44.769Z,4.27
2018-06-19T08:26:11.935Z,4.23
2018-06-19T08:28:39.088Z,3.87
2018-06-19T08:31:06.506Z,3.93
2018-06-19T08:33:33.684Z,4.17
2018-06-19T08:36:00.846Z,3.53
2018-06-19T08:38:28.262Z,3.87
2018-06-19T08:40:55.417Z,3.33
2018-06-19T08:43:22.575Z,3.17
2018-06-19T08:45:50.439Z,3.43
2018-06-19T08:48:17.623Z,3.43
2018-06-19T08:50:44.778Z,3.17
2018-06-19T08:53:11.968Z,2.47
2018-06-19T08:55:39.138Z,3.17
2018-06-19T08:58:06.305Z,2.23
2018-06-19T09:00:33.470Z,3.20
2018-06-19T09:03:00.625Z,3.27
2018-06-19T09:05:28.606Z,2.83
2018-06-19T09:07:55.865Z,2.80
2018-06-19T09:10:23.046Z,2.37
2018-06-19T09:12:50.224Z,2.60
2018-06-19T09:15:17.393Z,2.57
2018-06-19T09:17:44.755Z,2.70
2018-06-19T09:20:11.948Z,2.50
2018-06-19T09:22:39.100Z,2.77
2018-06-19T09:25:06.265Z,2.83
2018-06-19T09:27:33.725Z,2.97
2018-06-19T09:30:00.905Z,2.37
2018-06-19T09:32:28.118Z,2.87
2018-06-19T09:34:55.523Z,2.77
2018-06-19T09:37:22.681Z,2.57
2018-06-19T09:39:49.845Z,2.13
2018-06-19T09:42:17.017Z,2.77
2018-06-19T09:44:44.172Z,3.53
2018-06-19T09:47:11.342Z,2.80
2018-06-19T09:49:38.501Z,1.77
2018-06-19T09:52:06.077Z,2.23
2018-06-19T09:54:33.257Z,2.10
2018-06-19T09:57:00.406Z,1.30
2018-06-19T09:59:27.781Z,2.07
2018-06-19T10:01:55.014Z,1.73
2018-06-19T10:04:22.177Z,2.37
2018-06-19T10:06:49.669Z,1.53
2018-06-19T10:09:16.846Z,1.67
2018-06-19T10:11:44.018Z,1.67
2018-06-19T10:14:11.523Z,1.87
2018-06-19T10:16:38.702Z,1.57
2018-06-19T10:19:05.889Z,1.87
2018-06-19T10:21:33.061Z,1.50
2018-06-19T10:24:00.233Z,1.63
2018-06-19T10:26:27.711Z,1.30
2018-06-19T10:28:54.874Z,1.50
2018-06-19T10:31:22.090Z,1.70
2018-06-19T10:33:49.276Z,1.40
2018-06-19T10:36:16.437Z,1.90
2018-06-19T10:38:43.585Z,2.10
2018-06-19T10:41:11.061Z,1.80
2018-06-19T10:43:38.226Z,1.67
2018-06-19T10:46:05.397Z,2.00
2018-06-19T10:48:32.700Z,1.00
2018-06-19T10:50:59.825Z,1.37
2018-06-19T10:53:26.971Z,1.93
2018-06-19T10:55:54.109Z,1.73
2018-06-19T10:58:21.267Z,1.23
2018-06-19T11:00:48.398Z,1.40
2018-06-19T11:03:15.536Z,1.20
2018-06-19T11:05:42.702Z,1.90
2018-06-19T11:08:09.856Z,1.63
2018-06-19T11:10:37.334Z,1.47
2018-06-19T11:13:04.654Z,1.10
2018-06-19T11:15:31.982Z,1.30
2018-06-19T11:17:59.133Z,1.20
2018-06-19T11:20:26.266Z,1.40
2018-06-19T11:22:53.422Z,1.10
2018-06-19T11:25:20.590Z,1.80
2018-06-19T11:27:47.725Z,1.20
2018-06-19T11:30:15.178Z,1.40
2018-06-19T11:32:42.313Z,1.17
2018-06-19T11:35:09.439Z,1.37
2018-06-19T11:37:36.594Z,1.20
2018-06-19T11:40:03.744Z,1.57
2018-06-19T11:42:31.019Z,1.27
2018-06-19T11:44:58.285Z,1.43
2018-06-19T11:47:25.508Z,1.50
2018-06-19T11:49:52.794Z,1.40
2018-06-19T11:52:20.120Z,1.43
2018-06-19T11:54:47.362Z,1.40
2018-06-19T11:57:14.590Z,1.20
2018-06-19T11:59:41.980Z,1.17
2018-06-19T12:02:09.203Z,1.40
2018-06-19T12:04:36.461Z,1.60
2018-06-19T12:07:03.752Z,1.43
2018-06-19T12:09:30.969Z,1.60
2018-06-19T12:11:58.288Z,1.40
2018-06-19T12:14:25.502Z,1.37
2018-06-19T12:16:52.708Z,1.40
2018-06-19T12:19:20.238Z,1.40
2018-06-19T12:21:48.413Z,1.90
2018-06-19T12:24:15.710Z,1.37
2018-06-19T12:26:42.991Z,1.10
2018-06-19T12:29:10.258Z,1.70
2018-06-19T12:31:37.475Z,1.10
2018-06-19T12:34:05.435Z,1.43
2018-06-19T12:36:32.799Z,1.57
2018-06-19T12:38:59.974Z,1.10
2018-06-19T12:41:43.566Z,1.63
2018-06-19T12:44:10.874Z,2.07
2018-06-19T12:46:38.886Z,1.47
2018-06-19T12:49:06.582Z,1.70
2018-06-19T12:52:51.132Z,1.50
2018-06-19T12:55:30.733Z,1.80
2018-06-19T12:57:58.007Z,1.20
2018-06-19T13:00:25.292Z,1.20
2018-06-19T13:04:01.595Z,1.47
2018-06-19T13:06:31.274Z,1.40
2018-06-19T13:08:58.590Z,1.37
2018-06-19T13:11:25.834Z,1.63
2018-06-19T13:13:58.708Z,1.40
2018-06-19T13:16:38.084Z,1.80
2018-06-19T13:19:16.777Z,1.33
2018-06-19T13:21:44.030Z,1.57
2018-06-19T13:24:11.293Z,1.40
2018-06-19T13:26:38.599Z,1.37
2018-06-19T13:29:48.346Z,0.97
2018-06-19T13:32:15.596Z,1.53
2018-06-19T13:34:42.880Z,1.40
2018-06-19T13:37:16.482Z,1.20
2018-06-19T13:39:44.358Z,1.10
2018-06-19T13:42:26.987Z,1.40
2018-06-19T13:45:01.687Z,1.57
2018-06-19T13:47:33.041Z,1.10
2018-06-19T13:50:00.518Z,1.57
2018-06-19T13:52:27.804Z,1.40
2018-06-19T13:57:18.486Z,1.60
2018-06-19T13:59:45.729Z,1.40
2018-06-19T14:02:13.014Z,1.33
2018-06-19T14:04:40.449Z,1.37
2018-06-19T14:07:07.732Z,1.30
2018-06-19T14:09:47.758Z,1.83
2018-06-19T14:13:01.201Z,1.00
2018-06-19T14:15:30.466Z,1.10
2018-06-19T14:17:58.033Z,1.33
2018-06-19T14:20:25.615Z,1.23
2018-06-19T14:22:52.894Z,1.40
2018-06-19T14:25:20.510Z,1.47
2018-06-19T14:27:48.209Z,1.40
2018-06-19T14:30:15.419Z,1.40
2018-06-19T14:32:43.913Z,1.73
2018-06-19T14:35:13.558Z,1.70
2018-06-19T14:37:40.808Z,1.70
2018-06-19T14:41:38.134Z,1.17
2018-06-19T14:44:05.426Z,1.00
2018-06-19T14:46:32.742Z,1.60
2018-06-19T14:49:00.319Z,1.20
2018-06-19T14:51:27.530Z,1.57
2018-06-19T14:53:54.770Z,1.03
2018-06-19T14:56:22.374Z,1.27
2018-06-19T14:58:52.205Z,1.33
2018-06-19T15:01:19.559Z,1.30
2018-06-19T15:03:47.332Z,1.30
2018-06-19T15:06:14.699Z,1.60
2018-06-19T15:08:41.989Z,1.20
2018-06-19T15:11:09.250Z,1.40
2018-06-19T15:13:36.493Z,1.27
2018-06-19T15:16:04.026Z,1.07
2018-06-19T15:18:33.007Z,0.97
2018-06-19T15:21:00.438Z,1.00
2018-06-19T15:23:27.818Z,1.17
2018-06-19T15:25:55.105Z,1.23
2018-06-19T15:28:23.557Z,1.50
2018-06-19T15:30:50.862Z,0.90
2018-06-19T15:33:18.651Z,1.07
2018-06-19T15:35:46.113Z,1.30
2018-06-19T15:38:13.404Z,1.07
2018-06-19T15:40:41.153Z,1.30
2018-06-19T15:43:09.314Z,1.30
2018-06-19T15:45:36.699Z,1.13
2018-06-19T15:48:04.322Z,1.17
2018-06-19T15:50:31.596Z,1.17
2018-06-19T15:52:58.949Z,1.23
2018-06-19T15:55:26.261Z,1.27
2018-06-19T15:57:53.517Z,1.40
2018-06-19T16:00:20.829Z,1.27
2018-06-19T16:02:48.393Z,1.30
2018-06-19T16:05:15.824Z,1.30
2018-06-19T16:07:52.806Z,1.20
2018-06-19T16:10:20.100Z,1.57
2018-06-19T16:12:47.411Z,1.60
2018-06-19T16:15:14.977Z,1.70
2018-06-19T16:17:42.248Z,1.77
2018-06-19T16:20:09.480Z,1.50
2018-06-19T16:22:37.273Z,1.97
2018-06-19T16:25:04.611Z,1.50
2018-06-19T16:27:31.958Z,1.40
2018-06-19T16:29:59.594Z,1.57
2018-06-19T16:32:27.077Z,1.60
2018-06-19T16:34:54.336Z,1.37
2018-06-19T16:37:22.059Z,1.73
2018-06-19T16:39:49.595Z,1.40
2018-06-19T16:42:16.820Z,1.47
2018-06-19T16:44:44.071Z,1.47
2018-06-19T16:47:11.467Z,1.47
2018-06-19T16:49:38.738Z,1.57
2018-06-19T16:52:06.312Z,1.50
2018-06-19T16:54:33.545Z,1.53
2018-06-19T16:57:00.917Z,1.67
2018-06-19T16:59:28.165Z,1.40
2018-06-19T17:01:55.396Z,1.53
2018-06-19T17:04:22.719Z,1.57
2018-06-19T17:06:58.294Z,1.73
2018-06-19T17:09:27.167Z,1.93
2018-06-19T17:11:58.722Z,2.33
2018-06-19T17:14:25.916Z,2.43
2018-06-19T17:16:53.157Z,2.57
2018-06-19T17:19:20.398Z,2.43
2018-06-19T17:21:47.618Z,2.07
2018-06-19T17:24:14.824Z,2.27
2018-06-19T17:26:42.187Z,2.10
2018-06-19T17:29:09.887Z,2.73
2018-06-19T17:31:37.562Z,3.03
2018-06-19T17:34:06.385Z,2.93
2018-06-19T17:36:33.960Z,2.83
2018-06-19T17:39:01.897Z,2.53
2018-06-19T17:41:29.607Z,3.37
2018-06-19T17:43:56.914Z,3.50
2018-06-19T17:46:28.441Z,3.33
2018-06-19T17:49:05.512Z,4.20
2018-06-19T17:51:46.000Z,3.70
2018-06-19T17:54:14.860Z,4.47
2018-06-19T17:56:42.126Z,5.60
2018-06-19T17:59:09.376Z,6.07
2018-06-19T18:01:36.682Z,5.80
2018-06-19T18:04:04.011Z,6.73
2018-06-19T18:06:31.334Z,5.57
2018-06-19T18:08:58.659Z,6.83
2018-06-19T18:11:25.944Z,5.67
2018-06-19T18:13:53.218Z,6.43
2018-06-19T18:16:20.914Z,6.63
2018-06-19T18:18:48.157Z,6.93
2018-06-19T18:21:15.418Z,6.53
2018-06-19T18:23:42.692Z,5.97
2018-06-19T18:26:11.099Z,7.23
2018-06-19T18:28:38.668Z,5.60
2018-06-19T18:31:06.661Z,6.23
2018-06-19T18:33:37.422Z,6.20
2018-06-19T18:36:05.133Z,5.07
2018-06-19T18:38:32.982Z,5.60
2018-06-19T18:41:00.452Z,5.50
2018-06-19T18:43:28.117Z,6.97
2018-06-19T18:45:57.575Z,6.30
2018-06-19T18:48:25.605Z,6.03
2018-06-19T18:50:53.041Z,5.50
2018-06-19T18:53:21.004Z,6.13
2018-06-19T18:55:48.542Z,5.93
2018-06-19T18:58:23.501Z,5.50
2018-06-19T19:00:51.394Z,6.27
2018-06-19T19:03:21.228Z,5.60
2018-06-19T19:05:48.710Z,6.03
2018-06-19T19:08:18.126Z,5.93
2018-06-19T19:10:49.092Z,5.63
2018-06-19T19:13:23.305Z,5.23
2018-06-19T19:15:56.712Z,5.50
2018-06-19T19:18:29.890Z,5.53
2018-06-19T19:21:03.191Z,6.00
2018-06-19T19:23:30.766Z,5.60
2018-06-19T19:25:58.315Z,5.47
2018-06-19T19:28:31.767Z,5.00
2018-06-19T19:30:59.149Z,5.73
2018-06-19T19:33:26.797Z,5.37
2018-06-19T19:35:56.536Z,5.53
2018-06-19T19:38:29.546Z,5.53
2018-06-19T19:40:57.574Z,4.83
2018-06-19T19:43:25.047Z,5.17
2018-06-19T19:45:52.617Z,4.23
2018-06-19T19:48:26.409Z,4.10
2018-06-19T19:50:54.303Z,3.97
2018-06-19T19:53:21.946Z,3.83
2018-06-19T19:55:55.060Z,4.50
2018-06-19T19:58:28.154Z,3.30
2018-06-19T20:00:56.043Z,3.60
2018-06-19T20:03:23.446Z,3.47
2018-06-19T20:05:51.552Z,3.53
2018-06-19T20:08:20.276Z,3.10
2018-06-19T20:10:48.035Z,3.17
2018-06-19T20:13:18.242Z,3.90
2018-06-19T20:15:46.850Z,3.40
2018-06-19T20:18:14.424Z,3.20
2018-06-19T20:20:41.849Z,2.63
2018-06-19T20:23:09.553Z,3.53
2018-06-19T20:25:36.942Z,3.17
2018-06-19T20:28:04.620Z,3.30
2018-06-19T20:30:31.978Z,3.03
2018-06-19T20:32:59.393Z,3.10
2018-06-19T20:35:26.830Z,3.20
2018-06-19T20:37:54.399Z,3.57
2018-06-19T20:40:21.859Z,4.17
2018-06-19T20:42:49.369Z,3.50
2018-06-19T20:45:16.814Z,3.77
2018-06-19T20:47:44.222Z,3.53
2018-06-19T20:50:11.950Z,3.53
2018-06-19T20:52:39.345Z,3.10
2018-06-19T20:55:06.853Z,2.73
2018-06-19T20:57:34.316Z,2.43
2018-06-19T21:00:01.978Z,3.27
2018-06-19T21:02:30.045Z,3.30
2018-06-19T21:04:57.445Z,3.53
2018-06-19T21:07:24.815Z,3.67
2018-06-19T21:09:52.208Z,3.30
2018-06-19T21:12:19.618Z,3.20
2018-06-19T21:14:47.183Z,2.77
2018-06-19T21:17:14.945Z,3.73
2018-06-19T21:19:42.376Z,2.90
2018-06-19T21:22:09.783Z,3.20
2018-06-19T21:24:42.658Z,2.87
2018-06-19T21:27:11.375Z,2.80
2018-06-19T21:29:39.986Z,3.00
2018-06-19T21:32:08.022Z,2.73
2018-06-19T21:34:35.591Z,3.33
2018-06-19T21:37:03.278Z,3.00
2018-06-19T21:39:31.024Z,3.07
2018-06-19T21:41:58.437Z,2.43
2018-06-19T21:44:25.726Z,3.57
2018-06-19T21:46:53.241Z,2.93
2018-06-19T21:49:20.538Z,3.50
2018-06-19T21:51:47.861Z,3.30
2018-06-19T21:54:15.533Z,2.73
2018-06-19T21:56:42.875Z,2.53
2018-06-19T21:59:10.175Z,3.17
2018-06-19T22:01:37.880Z,3.13
2018-06-19T22:04:05.190Z,2.90
2018-06-19T22:06:32.509Z,3.60
2018-06-19T22:08:59.812Z,3.10
2018-06-19T22:11:27.229Z,3.70
2018-06-19T22:13:54.622Z,3.53
2018-06-19T22:16:26.303Z,3.27
2018-06-19T22:18:53.723Z,2.90
2018-06-19T22:21:21.400Z,3.57
2018-06-19T22:23:48.726Z,2.77
2018-06-19T22:26:16.182Z,2.50
2018-06-19T22:28:43.543Z,3.10
2018-06-19T22:31:13.171Z,2.17
2018-06-19T22:33:40.722Z,2.83
2018-06-19T22:36:08.041Z,2.67
2018-06-19T22:38:35.702Z,2.60
2018-06-19T22:41:03.021Z,2.53
2018-06-19T22:43:30.366Z,2.80
2018-06-19T22:45:57.928Z,2.50
2018-06-19T22:48:25.310Z,2.67
2018-06-19T22:50:52.909Z,2.43
2018-06-19T22:53:20.290Z,2.20
2018-06-19T22:55:47.737Z,2.30
2018-06-19T22:58:15.081Z,2.90
2018-06-19T23:00:42.655Z,3.50
2018-06-19T23:03:10.084Z,1.97
2018-06-19T23:05:37.592Z,2.57
2018-06-19T23:08:04.978Z,2.67
2018-06-19T23:10:32.384Z,2.13
2018-06-19T23:13:01.043Z,2.57
2018-06-19T23:15:28.871Z,2.33
2018-06-19T23:17:56.299Z,1.70
2018-06-19T23:20:23.841Z,2.50
2018-06-19T23:22:51.814Z,3.07
2018-06-19T23:25:19.588Z,1.97
2018-06-19T23:27:47.230Z,2.53
2018-06-19T23:30:15.748Z,1.90
2018-06-19T23:32:44.360Z,2.17
2018-06-19T23:35:13.998Z,2.10
2018-06-19T23:37:42.487Z,1.60
2018-06-19T23:40:10.218Z,2.00
2018-06-19T23:42:37.722Z,1.83
2018-06-19T23:45:05.438Z,2.07
2018-06-19T23:47:33.533Z,2.10
2018-06-19T23:50:01.111Z,2.20
2018-06-19T23:52:29.040Z,3.00
2018-06-19T23:54:56.543Z,1.97
2018-06-19T23:57:24.641Z,2.57
2018-06-19T23:59:52.295Z,1.67
